createdAt,value
2022-11-29T00:00:19.158Z,95533.31
2022-11-29T00:03:09.861Z,95532.70
2022-11-29T00:08:37.094Z,95528.50
2022-11-29T00:14:34.420Z,95519.09
2022-11-29T00:17:24.139Z,95515.57
2022-11-29T00:20:14.646Z,95512.69
2022-11-29T00:25:43.931Z,95509.48
2022-11-29T00:28:32.432Z,95519.91
2022-11-29T00:31:22.913Z,95515.62
2022-11-29T00:34:12.731Z,95512.67
2022-11-29T00:39:43.554Z,95513.45
2022-11-29T00:42:32.901Z,95518.85
2022-11-29T00:48:08.374Z,95512.17
2022-11-29T00:53:41.594Z,95506.36
2022-11-29T00:59:17.606Z,95503.18
2022-11-29T01:05:09.370Z,95506.17
2022-11-29T01:10:48.453Z,95502.59
2022-11-29T01:16:22.184Z,95505.11
2022-11-29T01:21:59.365Z,95510.52
2022-11-29T01:24:47.972Z,95519.54
2022-11-29T01:30:25.429Z,95510.41
2022-11-29T01:33:13.790Z,95514.14
2022-11-29T01:38:46.137Z,95500.39
2022-11-29T01:41:36.775Z,95506.66
2022-11-29T01:45:03.955Z,95500.12
2022-11-29T01:50:42.952Z,95501.72
2022-11-29T01:53:32.726Z,95499.41
2022-11-29T01:56:32.945Z,95506.02
2022-11-29T01:59:23.243Z,95501.25
2022-11-29T02:05:01.678Z,95497.14
2022-11-29T02:10:40.250Z,95503.47
2022-11-29T02:22:00.211Z,95507.14
2022-11-29T02:28:46.478Z,95493.61
2022-11-29T02:32:18.474Z,95501.95
2022-11-29T02:38:09.650Z,95494.97
2022-11-29T02:44:46.970Z,95489.94
2022-11-29T02:47:41.230Z,95494.72
2022-11-29T02:50:37.709Z,95495.79
2022-11-29T02:53:30.968Z,95488.13
2022-11-29T02:56:24.015Z,95488.37
2022-11-29T02:59:16.061Z,95492.66
2022-11-29T03:04:56.005Z,95493.53
2022-11-29T03:10:38.438Z,95492.02
2022-11-29T03:16:22.593Z,95493.76
2022-11-29T03:24:55.852Z,95502.11
2022-11-29T03:27:48.003Z,95506.17
2022-11-29T03:33:23.730Z,95508.56
2022-11-29T03:41:56.619Z,95513.34
2022-11-29T03:47:29.378Z,95509.98
2022-11-29T03:53:13.294Z,95517.66
2022-11-29T03:56:04.791Z,95526.72
2022-11-29T03:58:56.760Z,95517.12
2022-11-29T04:02:19.629Z,95518.23
2022-11-29T04:05:43.318Z,95520.54
2022-11-29T04:09:06.981Z,95520.87
2022-11-29T04:12:35.018Z,95525.61
2022-11-29T04:19:12.551Z,95515.59
2022-11-29T04:25:35.401Z,95516.82
2022-11-29T04:31:28.115Z,95519.58
2022-11-29T04:38:27.489Z,95516.88
2022-11-29T04:47:39.297Z,95529.59
2022-11-29T04:53:37.614Z,95529.59
2022-11-29T04:59:27.661Z,95531.82
2022-11-29T05:05:07.177Z,95530.67
2022-11-29T05:08:01.578Z,95529.09
2022-11-29T05:13:54.858Z,95534.73
2022-11-29T05:16:52.362Z,95544.91
2022-11-29T05:19:49.557Z,95541.66
2022-11-29T05:22:41.490Z,95538.00
2022-11-29T05:28:34.503Z,95551.02
2022-11-29T05:34:41.364Z,95551.89
2022-11-29T05:40:30.878Z,95558.31
2022-11-29T05:43:49.551Z,95552.52
2022-11-29T05:49:32.590Z,95559.13
2022-11-29T05:52:24.933Z,95560.72
2022-11-29T05:55:25.050Z,95559.93
2022-11-29T06:11:51.031Z,95572.25
2022-11-29T06:17:55.200Z,95579.86
2022-11-29T06:20:55.467Z,95583.57
2022-11-29T06:29:43.311Z,95586.05
2022-11-29T06:35:40.485Z,95583.59
2022-11-29T06:41:22.321Z,95588.27
2022-11-29T06:44:12.971Z,95584.08
2022-11-29T06:49:55.828Z,95586.77
2022-11-29T06:55:30.104Z,95597.00
2022-11-29T06:58:31.453Z,95596.75
2022-11-29T07:01:23.538Z,95593.14
2022-11-29T07:04:25.661Z,95599.31
2022-11-29T07:09:59.444Z,95610.42
2022-11-29T07:12:49.950Z,95608.98
2022-11-29T07:15:39.173Z,95614.16
2022-11-29T07:21:19.866Z,95614.72
2022-11-29T07:24:11.912Z,95621.16
2022-11-29T07:27:07.832Z,95624.17
2022-11-29T07:30:05.791Z,95626.17
2022-11-29T07:33:00.637Z,95625.52
2022-11-29T07:38:34.713Z,95619.31
2022-11-29T07:44:16.522Z,95620.38
2022-11-29T07:49:44.859Z,95618.86
2022-11-29T07:52:32.981Z,95627.67
2022-11-29T07:55:22.966Z,95622.19
2022-11-29T08:00:51.962Z,95629.33
2022-11-29T08:06:27.882Z,95631.02
2022-11-29T08:12:03.136Z,95632.66
2022-11-29T08:17:39.034Z,95632.91
2022-11-29T08:23:13.702Z,95641.34
2022-11-29T08:26:03.165Z,95649.69
2022-11-29T08:31:45.396Z,95653.66
2022-11-29T08:37:17.860Z,95659.15
2022-11-29T08:42:47.434Z,95658.73
2022-11-29T08:48:23.057Z,95661.27
2022-11-29T08:53:52.646Z,95656.44
2022-11-29T08:59:29.023Z,95657.68
2022-11-29T09:02:19.148Z,95664.18
2022-11-29T09:07:51.881Z,95669.34
2022-11-29T09:13:23.590Z,95664.16
2022-11-29T09:19:02.040Z,95666.95
2022-11-29T09:21:50.615Z,95674.98
2022-11-29T09:24:39.200Z,95677.38
2022-11-29T09:30:23.654Z,95684.23
2022-11-29T09:36:00.156Z,95682.79
2022-11-29T09:42:03.942Z,95684.10
2022-11-29T09:45:00.523Z,95684.70
2022-11-29T09:48:00.588Z,95688.87
2022-11-29T09:50:51.651Z,95689.16
2022-11-29T09:56:31.872Z,95686.84
2022-11-29T10:02:21.127Z,95681.44
2022-11-29T10:05:10.144Z,95683.27
2022-11-29T10:10:49.844Z,95687.47
2022-11-29T10:16:28.424Z,95683.27
2022-11-29T10:25:00.658Z,95679.78
2022-11-29T10:30:31.176Z,95682.77
2022-11-29T10:36:04.159Z,95683.30
2022-11-29T10:38:53.404Z,95677.07
2022-11-29T10:44:29.150Z,95680.72
2022-11-29T10:50:06.750Z,95679.55
2022-11-29T10:55:45.644Z,95677.12
2022-11-29T10:58:34.950Z,95674.00
2022-11-29T11:04:17.110Z,95677.83
2022-11-29T11:07:06.506Z,95673.94
2022-11-29T11:13:03.639Z,95675.66
2022-11-29T11:18:32.304Z,95674.91
2022-11-29T11:24:06.481Z,95678.00
2022-11-29T11:29:38.606Z,95673.90
2022-11-29T11:35:23.033Z,95672.34
2022-11-29T11:38:18.348Z,95672.41
2022-11-29T11:41:12.472Z,95677.38
2022-11-29T11:46:51.200Z,95673.56
2022-11-29T11:52:28.846Z,95673.53
2022-11-29T11:58:22.667Z,95680.02
2022-11-29T12:01:21.194Z,95679.78
2022-11-29T12:04:15.923Z,95677.89
2022-11-29T12:13:02.740Z,95682.50
2022-11-29T12:18:48.663Z,95685.61
2022-11-29T12:24:45.771Z,95691.02
2022-11-29T12:27:34.017Z,95688.80
2022-11-29T12:33:33.786Z,95691.38
2022-11-29T12:39:31.945Z,95693.61
2022-11-29T12:45:18.632Z,95690.55
2022-11-29T12:48:17.905Z,95697.03
2022-11-29T13:00:10.689Z,95699.55
2022-11-29T13:05:51.960Z,95699.12
2022-11-29T13:14:43.374Z,95704.91
2022-11-29T13:20:09.220Z,95702.73
2022-11-29T13:23:02.185Z,95705.48
2022-11-29T13:28:42.687Z,95704.96
2022-11-29T13:31:32.318Z,95705.62
2022-11-29T13:39:57.974Z,95707.38
2022-11-29T13:49:01.408Z,95709.02
2022-11-29T13:54:58.783Z,95712.09
2022-11-29T14:00:39.107Z,95715.09
2022-11-29T14:07:09.223Z,95714.86
2022-11-29T14:10:09.438Z,95720.51
2022-11-29T14:13:06.579Z,95723.55
2022-11-29T14:16:03.087Z,95724.33
2022-11-29T14:22:33.769Z,95723.41
2022-11-29T14:28:33.003Z,95724.20
2022-11-29T14:31:55.265Z,95720.95
2022-11-29T14:34:50.219Z,95727.88
2022-11-29T14:40:32.750Z,95728.02
2022-11-29T14:46:27.736Z,95733.55
2022-11-29T14:52:25.030Z,95731.06
2022-11-29T14:55:32.693Z,95733.70
2022-11-29T15:01:11.943Z,95732.83
2022-11-29T15:06:53.071Z,95741.75
2022-11-29T15:09:45.796Z,95743.73
2022-11-29T15:12:40.415Z,95748.27
2022-11-29T15:18:45.246Z,95750.80
2022-11-29T15:24:40.298Z,95758.88
2022-11-29T15:30:28.340Z,95755.70
2022-11-29T15:36:11.008Z,95755.94
2022-11-29T15:44:35.363Z,95762.34
2022-11-29T15:47:28.832Z,95764.10
2022-11-29T15:50:27.747Z,95767.98
2022-11-29T15:56:18.113Z,95771.45
2022-11-29T16:02:00.201Z,95776.45
2022-11-29T16:07:35.942Z,95780.45
2022-11-29T16:13:26.099Z,95785.61
2022-11-29T16:22:03.672Z,95780.25
2022-11-29T16:25:01.597Z,95778.77
2022-11-29T16:33:28.134Z,95786.02
2022-11-29T16:36:18.520Z,95793.02
2022-11-29T16:39:10.240Z,95793.99
2022-11-29T16:45:13.430Z,95792.48
2022-11-29T16:51:20.632Z,95793.09
2022-11-29T16:54:25.717Z,95795.92
2022-11-29T16:57:13.930Z,95797.80
2022-11-29T17:02:43.911Z,95796.91
2022-11-29T17:05:32.261Z,95801.48
2022-11-29T17:08:20.957Z,95801.97
2022-11-29T17:13:56.153Z,95803.84
2022-11-29T17:19:25.993Z,95799.67
2022-11-29T17:24:59.059Z,95801.11
2022-11-29T17:30:31.040Z,95807.98
2022-11-29T17:36:07.364Z,95811.78
2022-11-29T17:41:44.068Z,95814.61
2022-11-29T17:44:33.777Z,95813.13
2022-11-29T17:47:22.271Z,95814.76
2022-11-29T17:52:52.516Z,95823.52
2022-11-29T17:55:41.935Z,95823.20
2022-11-29T18:01:40.989Z,95825.45
2022-11-29T18:04:29.445Z,95824.30
2022-11-29T18:10:03.976Z,95823.71
2022-11-29T18:12:53.194Z,95826.83
2022-11-29T18:15:43.769Z,95826.63
2022-11-29T18:18:35.832Z,95831.02
2022-11-29T18:24:09.368Z,95833.14
2022-11-29T18:29:56.155Z,95830.77
2022-11-29T18:32:46.372Z,95833.99
2022-11-29T18:38:16.415Z,95828.23
2022-11-29T18:44:02.717Z,95838.41
2022-11-29T18:49:38.630Z,95840.08
2022-11-29T18:52:26.794Z,95840.77
2022-11-29T18:58:03.903Z,95848.17
2022-11-29T19:03:36.233Z,95847.15
2022-11-29T19:09:26.506Z,95849.70
2022-11-29T19:12:14.811Z,95855.49
2022-11-29T19:21:59.798Z,95860.67
2022-11-29T19:27:28.708Z,95858.29
2022-11-29T19:33:16.277Z,95853.63
2022-11-29T19:41:31.478Z,95864.18
2022-11-29T19:47:06.562Z,95853.11
2022-11-29T19:52:47.020Z,95854.61
2022-11-29T20:01:11.863Z,95853.55
2022-11-29T20:06:48.847Z,95850.80
2022-11-29T20:12:22.347Z,95857.09
2022-11-29T20:17:55.800Z,95860.38
2022-11-29T20:23:34.779Z,95863.94
2022-11-29T20:29:04.464Z,95867.07
2022-11-29T20:34:36.223Z,95867.38
2022-11-29T20:43:39.901Z,95872.05
2022-11-29T20:46:29.997Z,95875.36
2022-11-29T20:54:47.278Z,95875.00
2022-11-29T21:00:24.646Z,95878.02
2022-11-29T21:06:10.817Z,95880.88
2022-11-29T21:08:58.730Z,95882.73
2022-11-29T21:11:48.038Z,95878.90
2022-11-29T21:17:47.971Z,95876.95
2022-11-29T21:27:28.232Z,95880.22
2022-11-29T21:33:15.351Z,95876.00
2022-11-29T21:39:05.191Z,95880.81
2022-11-29T21:44:33.019Z,95874.02
2022-11-29T21:50:10.357Z,95882.48
2022-11-29T21:56:01.257Z,95876.72
2022-11-29T21:58:50.306Z,95884.81
2022-11-29T22:01:38.784Z,95886.91
2022-11-29T22:07:12.584Z,95885.78
2022-11-29T22:10:04.324Z,95882.23
2022-11-29T22:12:58.112Z,95882.83
2022-11-29T22:18:43.202Z,95876.59
2022-11-29T22:24:20.745Z,95878.33
2022-11-29T22:27:11.876Z,95879.84
2022-11-29T22:30:00.570Z,95882.72
2022-11-29T22:35:38.174Z,95882.63
2022-11-29T22:38:26.761Z,95878.92
2022-11-29T22:46:51.935Z,95879.64
2022-11-29T22:52:23.220Z,95879.92
2022-11-29T22:57:58.110Z,95876.70
2022-11-29T23:03:29.357Z,95885.25
2022-11-29T23:06:19.609Z,95876.45
2022-11-29T23:11:57.568Z,95880.31
2022-11-29T23:14:55.794Z,95882.00
2022-11-29T23:20:24.176Z,95878.58
2022-11-29T23:23:14.430Z,95880.37
2022-11-29T23:26:02.907Z,95878.45
2022-11-29T23:28:52.560Z,95874.57
2022-11-29T23:31:41.352Z,95873.57
2022-11-29T23:34:29.945Z,95878.39
2022-11-29T23:37:18.778Z,95877.89
2022-11-29T23:42:53.535Z,95881.34
2022-11-29T23:45:42.062Z,95873.38
2022-11-29T23:51:22.661Z,95872.13
2022-11-29T23:56:51.691Z,95871.63
2022-11-29T23:59:42.988Z,95872.66
